Terminal Aerodrome Forecast
Issued by NWS Caribou, ME

Home | Current Version | Previous Version | Text Only | Print | Product List | Glossary On
Versions: 1 2 3 4 5 6 7 8 9 10 11 12 13 14 15 16
000
FTUS41 KCAR 031126
TAFCAR
TAF
KCAR 031126Z 0312/0412 30005KT P6SM SKC
     FM032200 19006KT P6SM OVC050
     FM040300 19006KT 5SM -SN OVC030
     FM040600 19005KT 2SM -SN OVC025=

USA.gov is the U.S. government's official web portal to all federal, state and local government web resources and services.